sensor_id;sensor_type;location;lat;lon;timestamp;P1;durP1;ratioP1;P2;durP2;ratioP2
42096;SDS011;27754;45.414;11.084;2022-11-20T00:01:17;11.85;;;6.32;;
42096;SDS011;27754;45.414;11.084;2022-11-20T00:03:46;10.77;;;6.75;;
42096;SDS011;27754;45.414;11.084;2022-11-20T00:06:14;7.63;;;5.03;;
42096;SDS011;27754;45.414;11.084;2022-11-20T00:08:43;10.77;;;5.38;;
42096;SDS011;27754;45.414;11.084;2022-11-20T00:11:12;8.98;;;5.07;;
42096;SDS011;27754;45.414;11.084;2022-11-20T00:13:42;9.25;;;5.75;;
42096;SDS011;27754;45.414;11.084;2022-11-20T00:16:11;8.20;;;4.95;;
42096;SDS011;27754;45.414;11.084;2022-11-20T00:18:39;9.95;;;5.47;;
42096;SDS011;27754;45.414;11.084;2022-11-20T00:21:15;6.47;;;4.50;;
42096;SDS011;27754;45.414;11.084;2022-11-20T00:23:47;11.23;;;5.00;;
42096;SDS011;27754;45.414;11.084;2022-11-20T00:26:16;7.68;;;5.53;;
42096;SDS011;27754;45.414;11.084;2022-11-20T00:28:49;10.23;;;4.80;;
42096;SDS011;27754;45.414;11.084;2022-11-20T00:31:20;7.55;;;4.90;;
42096;SDS011;27754;45.414;11.084;2022-11-20T00:33:48;6.95;;;4.60;;
42096;SDS011;27754;45.414;11.084;2022-11-20T00:36:16;6.85;;;4.88;;
42096;SDS011;27754;45.414;11.084;2022-11-20T00:38:44;7.43;;;4.70;;
42096;SDS011;27754;45.414;11.084;2022-11-20T00:41:15;8.98;;;5.35;;
42096;SDS011;27754;45.414;11.084;2022-11-20T00:43:42;8.23;;;4.55;;
42096;SDS011;27754;45.414;11.084;2022-11-20T00:46:10;7.72;;;5.03;;
42096;SDS011;27754;45.414;11.084;2022-11-20T00:48:40;6.90;;;4.50;;
42096;SDS011;27754;45.414;11.084;2022-11-20T00:51:07;6.10;;;4.90;;
42096;SDS011;27754;45.414;11.084;2022-11-20T00:53:34;8.68;;;4.65;;
42096;SDS011;27754;45.414;11.084;2022-11-20T00:56:02;6.63;;;4.00;;
42096;SDS011;27754;45.414;11.084;2022-11-20T00:58:34;9.80;;;4.70;;
42096;SDS011;27754;45.414;11.084;2022-11-20T01:01:07;8.63;;;4.65;;
42096;SDS011;27754;45.414;11.084;2022-11-20T01:03:46;6.25;;;4.53;;
42096;SDS011;27754;45.414;11.084;2022-11-20T01:06:18;7.38;;;5.07;;
42096;SDS011;27754;45.414;11.084;2022-11-20T01:08:48;10.10;;;4.93;;
42096;SDS011;27754;45.414;11.084;2022-11-20T01:11:26;7.22;;;5.03;;
42096;SDS011;27754;45.414;11.084;2022-11-20T01:13:55;7.20;;;4.80;;
42096;SDS011;27754;45.414;11.084;2022-11-20T01:19:03;6.47;;;4.65;;
42096;SDS011;27754;45.414;11.084;2022-11-20T01:21:36;7.55;;;4.60;;
42096;SDS011;27754;45.414;11.084;2022-11-20T01:24:04;6.60;;;4.25;;
42096;SDS011;27754;45.414;11.084;2022-11-20T01:26:35;5.38;;;3.58;;
42096;SDS011;27754;45.414;11.084;2022-11-20T01:29:03;6.60;;;3.70;;
42096;SDS011;27754;45.414;11.084;2022-11-20T01:31:32;7.10;;;3.75;;
42096;SDS011;27754;45.414;11.084;2022-11-20T01:34:04;6.97;;;3.33;;
42096;SDS011;27754;45.414;11.084;2022-11-20T01:36:33;6.97;;;3.70;;
42096;SDS011;27754;45.414;11.084;2022-11-20T01:39:03;6.22;;;3.90;;
42096;SDS011;27754;45.414;11.084;2022-11-20T01:41:33;9.00;;;4.00;;
42096;SDS011;27754;45.414;11.084;2022-11-20T01:44:21;9.00;;;4.45;;
42096;SDS011;27754;45.414;11.084;2022-11-20T01:47:08;7.07;;;3.50;;
42096;SDS011;27754;45.414;11.084;2022-11-20T01:49:39;5.78;;;3.75;;
42096;SDS011;27754;45.414;11.084;2022-11-20T01:52:13;8.20;;;4.22;;
42096;SDS011;27754;45.414;11.084;2022-11-20T01:54:56;7.40;;;4.30;;
42096;SDS011;27754;45.414;11.084;2022-11-20T01:57:32;5.55;;;3.75;;
42096;SDS011;27754;45.414;11.084;2022-11-20T02:00:05;7.43;;;3.75;;
42096;SDS011;27754;45.414;11.084;2022-11-20T02:02:44;5.60;;;3.50;;
42096;SDS011;27754;45.414;11.084;2022-11-20T02:08:07;4.63;;;3.17;;
42096;SDS011;27754;45.414;11.084;2022-11-20T02:10:34;4.82;;;3.28;;
42096;SDS011;27754;45.414;11.084;2022-11-20T02:13:01;5.60;;;3.35;;
42096;SDS011;27754;45.414;11.084;2022-11-20T02:15:48;4.20;;;2.92;;
42096;SDS011;27754;45.414;11.084;2022-11-20T02:18:16;4.30;;;3.30;;
42096;SDS011;27754;45.414;11.084;2022-11-20T02:20:46;7.25;;;3.70;;
42096;SDS011;27754;45.414;11.084;2022-11-20T02:26:06;4.72;;;2.90;;
42096;SDS011;27754;45.414;11.084;2022-11-20T02:28:38;4.53;;;2.88;;
42096;SDS011;27754;45.414;11.084;2022-11-20T02:31:05;4.10;;;3.03;;
42096;SDS011;27754;45.414;11.084;2022-11-20T02:33:32;4.28;;;2.67;;
42096;SDS011;27754;45.414;11.084;2022-11-20T02:35:59;4.32;;;3.15;;
42096;SDS011;27754;45.414;11.084;2022-11-20T02:38:26;4.72;;;2.78;;
42096;SDS011;27754;45.414;11.084;2022-11-20T02:40:53;5.35;;;2.70;;
42096;SDS011;27754;45.414;11.084;2022-11-20T02:43:21;8.63;;;3.42;;
42096;SDS011;27754;45.414;11.084;2022-11-20T02:45:48;4.85;;;3.53;;
42096;SDS011;27754;45.414;11.084;2022-11-20T02:48:15;3.22;;;2.20;;
42096;SDS011;27754;45.414;11.084;2022-11-20T02:50:42;4.75;;;3.05;;
42096;SDS011;27754;45.414;11.084;2022-11-20T02:53:09;3.85;;;2.85;;
42096;SDS011;27754;45.414;11.084;2022-11-20T02:55:36;4.35;;;3.22;;
42096;SDS011;27754;45.414;11.084;2022-11-20T02:58:03;4.47;;;3.10;;
42096;SDS011;27754;45.414;11.084;2022-11-20T03:00:30;5.72;;;3.35;;
42096;SDS011;27754;45.414;11.084;2022-11-20T03:02:58;6.15;;;3.72;;
42096;SDS011;27754;45.414;11.084;2022-11-20T03:05:25;6.05;;;4.07;;
42096;SDS011;27754;45.414;11.084;2022-11-20T03:07:52;5.15;;;3.70;;
42096;SDS011;27754;45.414;11.084;2022-11-20T03:10:18;5.72;;;3.90;;
42096;SDS011;27754;45.414;11.084;2022-11-20T03:12:45;5.50;;;3.63;;
42096;SDS011;27754;45.414;11.084;2022-11-20T03:15:12;5.07;;;3.40;;
42096;SDS011;27754;45.414;11.084;2022-11-20T03:17:39;7.65;;;3.80;;
42096;SDS011;27754;45.414;11.084;2022-11-20T03:20:06;6.53;;;3.38;;
42096;SDS011;27754;45.414;11.084;2022-11-20T03:22:35;7.68;;;3.85;;
42096;SDS011;27754;45.414;11.084;2022-11-20T03:25:02;6.22;;;3.85;;
42096;SDS011;27754;45.414;11.084;2022-11-20T03:27:31;6.25;;;3.88;;
42096;SDS011;27754;45.414;11.084;2022-11-20T03:30:00;7.38;;;3.40;;
42096;SDS011;27754;45.414;11.084;2022-11-20T03:32:27;7.28;;;3.75;;
42096;SDS011;27754;45.414;11.084;2022-11-20T03:34:54;5.50;;;3.75;;
42096;SDS011;27754;45.414;11.084;2022-11-20T03:37:21;6.28;;;4.10;;
42096;SDS011;27754;45.414;11.084;2022-11-20T03:39:47;6.38;;;3.72;;
42096;SDS011;27754;45.414;11.084;2022-11-20T03:42:14;5.68;;;3.22;;
42096;SDS011;27754;45.414;11.084;2022-11-20T03:45:00;5.68;;;3.55;;
42096;SDS011;27754;45.414;11.084;2022-11-20T03:47:27;5.88;;;3.53;;
42096;SDS011;27754;45.414;11.084;2022-11-20T03:49:54;7.38;;;4.00;;
42096;SDS011;27754;45.414;11.084;2022-11-20T03:52:21;6.53;;;3.85;;
42096;SDS011;27754;45.414;11.084;2022-11-20T03:54:48;5.40;;;3.70;;
42096;SDS011;27754;45.414;11.084;2022-11-20T03:57:15;9.35;;;4.15;;
42096;SDS011;27754;45.414;11.084;2022-11-20T03:59:42;8.48;;;4.88;;
42096;SDS011;27754;45.414;11.084;2022-11-20T04:02:09;6.07;;;4.07;;
42096;SDS011;27754;45.414;11.084;2022-11-20T04:04:36;5.63;;;3.95;;
42096;SDS011;27754;45.414;11.084;2022-11-20T04:07:02;5.47;;;3.95;;
42096;SDS011;27754;45.414;11.084;2022-11-20T04:09:29;6.80;;;4.03;;
42096;SDS011;27754;45.414;11.084;2022-11-20T04:11:56;5.45;;;3.20;;
42096;SDS011;27754;45.414;11.084;2022-11-20T04:14:23;4.95;;;3.30;;
42096;SDS011;27754;45.414;11.084;2022-11-20T04:16:50;7.22;;;4.22;;
42096;SDS011;27754;45.414;11.084;2022-11-20T04:19:17;5.85;;;3.75;;
42096;SDS011;27754;45.414;11.084;2022-11-20T04:21:45;8.43;;;4.05;;
42096;SDS011;27754;45.414;11.084;2022-11-20T04:24:12;9.50;;;3.65;;
42096;SDS011;27754;45.414;11.084;2022-11-20T04:26:39;5.35;;;3.58;;
42096;SDS011;27754;45.414;11.084;2022-11-20T04:29:06;5.50;;;3.53;;
42096;SDS011;27754;45.414;11.084;2022-11-20T04:31:36;7.35;;;4.05;;
42096;SDS011;27754;45.414;11.084;2022-11-20T04:34:04;7.80;;;4.32;;
42096;SDS011;27754;45.414;11.084;2022-11-20T04:36:32;5.65;;;4.30;;
42096;SDS011;27754;45.414;11.084;2022-11-20T04:39:00;5.88;;;3.72;;
42096;SDS011;27754;45.414;11.084;2022-11-20T04:41:31;6.38;;;3.30;;
42096;SDS011;27754;45.414;11.084;2022-11-20T04:44:00;5.82;;;3.78;;
42096;SDS011;27754;45.414;11.084;2022-11-20T04:46:34;6.22;;;3.30;;
42096;SDS011;27754;45.414;11.084;2022-11-20T04:49:02;6.15;;;3.50;;
42096;SDS011;27754;45.414;11.084;2022-11-20T04:51:30;6.80;;;3.40;;
42096;SDS011;27754;45.414;11.084;2022-11-20T04:53:57;4.78;;;3.35;;
42096;SDS011;27754;45.414;11.084;2022-11-20T04:56:24;6.30;;;3.40;;
42096;SDS011;27754;45.414;11.084;2022-11-20T04:58:51;7.90;;;3.60;;
42096;SDS011;27754;45.414;11.084;2022-11-20T05:01:19;5.00;;;3.17;;
42096;SDS011;27754;45.414;11.084;2022-11-20T05:03:48;5.05;;;3.50;;
42096;SDS011;27754;45.414;11.084;2022-11-20T05:06:16;5.60;;;3.30;;
42096;SDS011;27754;45.414;11.084;2022-11-20T05:08:44;5.38;;;3.45;;
42096;SDS011;27754;45.414;11.084;2022-11-20T05:11:15;6.72;;;3.17;;
42096;SDS011;27754;45.414;11.084;2022-11-20T05:13:44;5.70;;;3.60;;
42096;SDS011;27754;45.414;11.084;2022-11-20T05:16:15;10.18;;;4.85;;
42096;SDS011;27754;45.414;11.084;2022-11-20T05:18:44;9.48;;;3.30;;
42096;SDS011;27754;45.414;11.084;2022-11-20T05:21:12;4.20;;;3.40;;
42096;SDS011;27754;45.414;11.084;2022-11-20T05:23:40;7.25;;;3.83;;
42096;SDS011;27754;45.414;11.084;2022-11-20T05:26:08;8.30;;;3.42;;
42096;SDS011;27754;45.414;11.084;2022-11-20T05:28:39;4.45;;;3.30;;
42096;SDS011;27754;45.414;11.084;2022-11-20T05:31:06;7.15;;;3.70;;
42096;SDS011;27754;45.414;11.084;2022-11-20T05:33:35;5.70;;;3.67;;
42096;SDS011;27754;45.414;11.084;2022-11-20T05:36:03;7.85;;;3.65;;
42096;SDS011;27754;45.414;11.084;2022-11-20T05:38:30;8.18;;;4.20;;
42096;SDS011;27754;45.414;11.084;2022-11-20T05:41:04;6.68;;;3.92;;
42096;SDS011;27754;45.414;11.084;2022-11-20T05:43:36;5.10;;;3.53;;
42096;SDS011;27754;45.414;11.084;2022-11-20T05:46:05;5.95;;;3.83;;
42096;SDS011;27754;45.414;11.084;2022-11-20T05:48:34;7.25;;;3.65;;
42096;SDS011;27754;45.414;11.084;2022-11-20T05:51:02;7.30;;;3.53;;
42096;SDS011;27754;45.414;11.084;2022-11-20T05:53:31;6.63;;;3.65;;
42096;SDS011;27754;45.414;11.084;2022-11-20T05:56:06;6.25;;;3.50;;
42096;SDS011;27754;45.414;11.084;2022-11-20T05:58:36;6.50;;;3.60;;
42096;SDS011;27754;45.414;11.084;2022-11-20T06:01:14;6.53;;;3.63;;
42096;SDS011;27754;45.414;11.084;2022-11-20T06:03:46;5.40;;;3.47;;
42096;SDS011;27754;45.414;11.084;2022-11-20T06:06:14;5.68;;;3.75;;
42096;SDS011;27754;45.414;11.084;2022-11-20T06:08:43;4.70;;;3.30;;
42096;SDS011;27754;45.414;11.084;2022-11-20T06:11:11;6.47;;;4.35;;
42096;SDS011;27754;45.414;11.084;2022-11-20T06:13:39;7.57;;;3.50;;
42096;SDS011;27754;45.414;11.084;2022-11-20T06:16:08;6.72;;;3.65;;
42096;SDS011;27754;45.414;11.084;2022-11-20T06:18:36;5.55;;;3.47;;
42096;SDS011;27754;45.414;11.084;2022-11-20T06:21:11;7.93;;;4.22;;
42096;SDS011;27754;45.414;11.084;2022-11-20T06:23:40;7.28;;;4.20;;
42096;SDS011;27754;45.414;11.084;2022-11-20T06:26:08;9.05;;;4.65;;
42096;SDS011;27754;45.414;11.084;2022-11-20T06:28:39;10.75;;;3.92;;
42096;SDS011;27754;45.414;11.084;2022-11-20T06:31:07;7.38;;;3.95;;
42096;SDS011;27754;45.414;11.084;2022-11-20T06:33:36;7.20;;;3.67;;
42096;SDS011;27754;45.414;11.084;2022-11-20T06:36:03;7.70;;;3.78;;
42096;SDS011;27754;45.414;11.084;2022-11-20T06:38:36;7.72;;;3.90;;
42096;SDS011;27754;45.414;11.084;2022-11-20T06:41:07;7.35;;;4.20;;
42096;SDS011;27754;45.414;11.084;2022-11-20T06:43:37;8.27;;;4.63;;
42096;SDS011;27754;45.414;11.084;2022-11-20T06:46:03;9.75;;;4.88;;
42096;SDS011;27754;45.414;11.084;2022-11-20T06:48:31;8.40;;;4.80;;
42096;SDS011;27754;45.414;11.084;2022-11-20T06:50:58;9.05;;;4.78;;
42096;SDS011;27754;45.414;11.084;2022-11-20T06:53:25;8.27;;;4.57;;
42096;SDS011;27754;45.414;11.084;2022-11-20T06:55:52;7.13;;;4.53;;
42096;SDS011;27754;45.414;11.084;2022-11-20T06:58:22;6.30;;;4.45;;
42096;SDS011;27754;45.414;11.084;2022-11-20T07:00:49;10.98;;;4.88;;
42096;SDS011;27754;45.414;11.084;2022-11-20T07:03:16;7.30;;;4.00;;
42096;SDS011;27754;45.414;11.084;2022-11-20T07:05:43;8.05;;;4.35;;
42096;SDS011;27754;45.414;11.084;2022-11-20T07:08:11;29.55;;;5.43;;
42096;SDS011;27754;45.414;11.084;2022-11-20T07:10:38;37.13;;;5.65;;
42096;SDS011;27754;45.414;11.084;2022-11-20T07:13:05;25.90;;;6.22;;
42096;SDS011;27754;45.414;11.084;2022-11-20T07:15:33;38.55;;;5.68;;
42096;SDS011;27754;45.414;11.084;2022-11-20T07:18:00;15.25;;;6.10;;
42096;SDS011;27754;45.414;11.084;2022-11-20T07:20:27;9.90;;;5.32;;
42096;SDS011;27754;45.414;11.084;2022-11-20T07:22:55;15.80;;;6.13;;
42096;SDS011;27754;45.414;11.084;2022-11-20T07:25:26;10.05;;;5.30;;
42096;SDS011;27754;45.414;11.084;2022-11-20T07:27:57;9.68;;;5.25;;
42096;SDS011;27754;45.414;11.084;2022-11-20T07:30:25;10.27;;;5.75;;
42096;SDS011;27754;45.414;11.084;2022-11-20T07:32:53;10.27;;;5.30;;
42096;SDS011;27754;45.414;11.084;2022-11-20T07:35:21;9.15;;;5.30;;
42096;SDS011;27754;45.414;11.084;2022-11-20T07:37:50;8.73;;;4.63;;
42096;SDS011;27754;45.414;11.084;2022-11-20T07:40:17;7.63;;;4.80;;
42096;SDS011;27754;45.414;11.084;2022-11-20T07:42:48;9.50;;;4.80;;
42096;SDS011;27754;45.414;11.084;2022-11-20T07:45:16;8.07;;;4.97;;
42096;SDS011;27754;45.414;11.084;2022-11-20T07:47:44;6.35;;;4.15;;
42096;SDS011;27754;45.414;11.084;2022-11-20T07:50:11;11.50;;;5.07;;
42096;SDS011;27754;45.414;11.084;2022-11-20T07:52:38;8.02;;;4.60;;
42096;SDS011;27754;45.414;11.084;2022-11-20T07:55:06;7.75;;;4.45;;
42096;SDS011;27754;45.414;11.084;2022-11-20T07:57:33;7.15;;;4.50;;
42096;SDS011;27754;45.414;11.084;2022-11-20T08:00:01;9.32;;;4.75;;
42096;SDS011;27754;45.414;11.084;2022-11-20T08:02:40;6.90;;;4.25;;
42096;SDS011;27754;45.414;11.084;2022-11-20T08:05:08;7.28;;;4.60;;
42096;SDS011;27754;45.414;11.084;2022-11-20T08:07:36;7.72;;;4.25;;
42096;SDS011;27754;45.414;11.084;2022-11-20T08:10:04;6.90;;;4.22;;
42096;SDS011;27754;45.414;11.084;2022-11-20T08:12:32;21.67;;;4.40;;
42096;SDS011;27754;45.414;11.084;2022-11-20T08:15:17;8.85;;;4.72;;
42096;SDS011;27754;45.414;11.084;2022-11-20T08:17:44;8.98;;;4.68;;
42096;SDS011;27754;45.414;11.084;2022-11-20T08:20:31;9.13;;;4.50;;
42096;SDS011;27754;45.414;11.084;2022-11-20T08:23:02;13.98;;;5.03;;
42096;SDS011;27754;45.414;11.084;2022-11-20T08:25:32;7.95;;;4.35;;
42096;SDS011;27754;45.414;11.084;2022-11-20T08:28:01;6.97;;;4.10;;
42096;SDS011;27754;45.414;11.084;2022-11-20T08:30:45;7.77;;;4.20;;
42096;SDS011;27754;45.414;11.084;2022-11-20T08:33:12;6.13;;;3.63;;
42096;SDS011;27754;45.414;11.084;2022-11-20T08:35:39;9.00;;;4.20;;
42096;SDS011;27754;45.414;11.084;2022-11-20T08:38:08;4.93;;;3.47;;
42096;SDS011;27754;45.414;11.084;2022-11-20T08:40:35;5.85;;;4.10;;
42096;SDS011;27754;45.414;11.084;2022-11-20T08:43:02;7.53;;;4.05;;
42096;SDS011;27754;45.414;11.084;2022-11-20T08:45:29;5.53;;;4.00;;
42096;SDS011;27754;45.414;11.084;2022-11-20T08:48:02;7.47;;;4.20;;
42096;SDS011;27754;45.414;11.084;2022-11-20T08:50:33;8.27;;;3.85;;
42096;SDS011;27754;45.414;11.084;2022-11-20T08:53:06;8.77;;;4.72;;
42096;SDS011;27754;45.414;11.084;2022-11-20T08:55:33;8.25;;;5.13;;
42096;SDS011;27754;45.414;11.084;2022-11-20T08:58:05;6.65;;;4.35;;
42096;SDS011;27754;45.414;11.084;2022-11-20T09:00:33;7.22;;;4.05;;
42096;SDS011;27754;45.414;11.084;2022-11-20T09:03:00;5.20;;;3.30;;
42096;SDS011;27754;45.414;11.084;2022-11-20T09:05:28;6.78;;;3.63;;
42096;SDS011;27754;45.414;11.084;2022-11-20T09:07:56;8.27;;;3.78;;
42096;SDS011;27754;45.414;11.084;2022-11-20T09:10:24;6.53;;;4.20;;
42096;SDS011;27754;45.414;11.084;2022-11-20T09:12:52;7.82;;;3.92;;
42096;SDS011;27754;45.414;11.084;2022-11-20T09:15:19;10.02;;;4.57;;
42096;SDS011;27754;45.414;11.084;2022-11-20T09:17:53;5.55;;;4.28;;
42096;SDS011;27754;45.414;11.084;2022-11-20T09:20:21;6.65;;;4.10;;
42096;SDS011;27754;45.414;11.084;2022-11-20T09:22:49;9.13;;;3.95;;
42096;SDS011;27754;45.414;11.084;2022-11-20T09:25:17;6.22;;;3.72;;
42096;SDS011;27754;45.414;11.084;2022-11-20T09:27:44;6.20;;;3.65;;
42096;SDS011;27754;45.414;11.084;2022-11-20T09:30:13;4.40;;;3.22;;
42096;SDS011;27754;45.414;11.084;2022-11-20T09:32:41;7.28;;;3.67;;
42096;SDS011;27754;45.414;11.084;2022-11-20T09:35:08;7.78;;;3.88;;
42096;SDS011;27754;45.414;11.084;2022-11-20T09:37:36;6.97;;;3.60;;
42096;SDS011;27754;45.414;11.084;2022-11-20T09:40:03;6.47;;;3.20;;
42096;SDS011;27754;45.414;11.084;2022-11-20T09:42:39;7.75;;;3.17;;
42096;SDS011;27754;45.414;11.084;2022-11-20T09:45:22;6.22;;;3.47;;
42096;SDS011;27754;45.414;11.084;2022-11-20T09:50:49;7.28;;;2.60;;
42096;SDS011;27754;45.414;11.084;2022-11-20T09:53:37;4.78;;;2.60;;
42096;SDS011;27754;45.414;11.084;2022-11-20T09:56:29;3.63;;;2.60;;
42096;SDS011;27754;45.414;11.084;2022-11-20T09:58:59;3.72;;;2.60;;
42096;SDS011;27754;45.414;11.084;2022-11-20T10:01:30;10.20;;;3.13;;
42096;SDS011;27754;45.414;11.084;2022-11-20T10:04:10;4.13;;;2.65;;
42096;SDS011;27754;45.414;11.084;2022-11-20T10:09:54;4.60;;;3.10;;
42096;SDS011;27754;45.414;11.084;2022-11-20T10:23:29;7.50;;;3.80;;
42096;SDS011;27754;45.414;11.084;2022-11-20T10:32:00;6.47;;;4.40;;
42096;SDS011;27754;45.414;11.084;2022-11-20T10:34:34;6.53;;;4.15;;
42096;SDS011;27754;45.414;11.084;2022-11-20T10:37:32;5.75;;;4.13;;
42096;SDS011;27754;45.414;11.084;2022-11-20T10:47:51;7.20;;;4.22;;
42096;SDS011;27754;45.414;11.084;2022-11-20T10:50:47;6.35;;;3.58;;
42096;SDS011;27754;45.414;11.084;2022-11-20T11:01:28;7.80;;;4.35;;
42096;SDS011;27754;45.414;11.084;2022-11-20T11:03:55;7.95;;;4.53;;
42096;SDS011;27754;45.414;11.084;2022-11-20T11:06:28;8.73;;;4.18;;
42096;SDS011;27754;45.414;11.084;2022-11-20T11:09:10;5.93;;;4.13;;
42096;SDS011;27754;45.414;11.084;2022-11-20T11:11:41;6.82;;;4.20;;
42096;SDS011;27754;45.414;11.084;2022-11-20T11:14:09;5.93;;;4.18;;
42096;SDS011;27754;45.414;11.084;2022-11-20T11:17:02;5.80;;;3.95;;
42096;SDS011;27754;45.414;11.084;2022-11-20T11:19:28;7.05;;;4.00;;
42096;SDS011;27754;45.414;11.084;2022-11-20T11:21:55;6.95;;;4.20;;
42096;SDS011;27754;45.414;11.084;2022-11-20T11:24:27;9.07;;;4.20;;
42096;SDS011;27754;45.414;11.084;2022-11-20T11:27:11;9.35;;;4.47;;
42096;SDS011;27754;45.414;11.084;2022-11-20T11:29:44;8.20;;;4.07;;
42096;SDS011;27754;45.414;11.084;2022-11-20T11:32:17;6.50;;;3.85;;
42096;SDS011;27754;45.414;11.084;2022-11-20T11:35:03;7.75;;;4.35;;
42096;SDS011;27754;45.414;11.084;2022-11-20T11:37:33;7.43;;;4.80;;
42096;SDS011;27754;45.414;11.084;2022-11-20T11:40:03;9.27;;;4.40;;
42096;SDS011;27754;45.414;11.084;2022-11-20T11:42:56;7.05;;;4.55;;
42096;SDS011;27754;45.414;11.084;2022-11-20T11:45:25;8.15;;;5.03;;
42096;SDS011;27754;45.414;11.084;2022-11-20T11:47:53;10.07;;;5.07;;
42096;SDS011;27754;45.414;11.084;2022-11-20T11:50:24;8.10;;;4.85;;
42096;SDS011;27754;45.414;11.084;2022-11-20T11:55:47;6.78;;;4.70;;
42096;SDS011;27754;45.414;11.084;2022-11-20T11:58:44;9.15;;;6.63;;
42096;SDS011;27754;45.414;11.084;2022-11-20T12:06:53;9.52;;;5.72;;
42096;SDS011;27754;45.414;11.084;2022-11-20T12:09:46;15.43;;;10.60;;
42096;SDS011;27754;45.414;11.084;2022-11-20T12:12:31;20.33;;;15.68;;
42096;SDS011;27754;45.414;11.084;2022-11-20T12:15:08;16.23;;;13.20;;
42096;SDS011;27754;45.414;11.084;2022-11-20T12:17:39;11.68;;;7.95;;
42096;SDS011;27754;45.414;11.084;2022-11-20T12:20:15;21.30;;;15.77;;
42096;SDS011;27754;45.414;11.084;2022-11-20T12:23:26;54.95;;;38.55;;
42096;SDS011;27754;45.414;11.084;2022-11-20T12:25:36;29.70;;;21.23;;
42096;SDS011;27754;45.414;11.084;2022-11-20T12:39:59;13.70;;;8.65;;
42096;SDS011;27754;45.414;11.084;2022-11-20T13:01:53;19.15;;;13.82;;
42096;SDS011;27754;45.414;11.084;2022-11-20T13:07:04;20.92;;;14.38;;
42096;SDS011;27754;45.414;11.084;2022-11-20T13:09:35;22.15;;;13.70;;
42096;SDS011;27754;45.414;11.084;2022-11-20T13:12:18;23.13;;;13.85;;
42096;SDS011;27754;45.414;11.084;2022-11-20T13:15:02;24.52;;;14.70;;
42096;SDS011;27754;45.414;11.084;2022-11-20T13:18:03;22.98;;;14.65;;
42096;SDS011;27754;45.414;11.084;2022-11-20T13:20:34;21.48;;;14.60;;
42096;SDS011;27754;45.414;11.084;2022-11-20T13:23:07;20.27;;;12.88;;
42096;SDS011;27754;45.414;11.084;2022-11-20T13:25:34;29.17;;;18.27;;
42096;SDS011;27754;45.414;11.084;2022-11-20T13:28:04;19.70;;;13.40;;
42096;SDS011;27754;45.414;11.084;2022-11-20T13:30:31;20.63;;;12.88;;
42096;SDS011;27754;45.414;11.084;2022-11-20T13:33:04;23.35;;;14.32;;
42096;SDS011;27754;45.414;11.084;2022-11-20T13:40:51;18.63;;;12.50;;
42096;SDS011;27754;45.414;11.084;2022-11-20T13:43:36;20.77;;;13.57;;
42096;SDS011;27754;45.414;11.084;2022-11-20T13:46:08;22.15;;;15.68;;
42096;SDS011;27754;45.414;11.084;2022-11-20T13:48:42;18.95;;;14.00;;
42096;SDS011;27754;45.414;11.084;2022-11-20T13:51:32;24.10;;;16.00;;
42096;SDS011;27754;45.414;11.084;2022-11-20T14:02:41;26.77;;;16.40;;
42096;SDS011;27754;45.414;11.084;2022-11-20T14:05:17;23.13;;;15.85;;
42096;SDS011;27754;45.414;11.084;2022-11-20T14:07:49;27.60;;;17.02;;
42096;SDS011;27754;45.414;11.084;2022-11-20T14:10:22;25.98;;;15.88;;
42096;SDS011;27754;45.414;11.084;2022-11-20T14:12:57;27.58;;;17.77;;
42096;SDS011;27754;45.414;11.084;2022-11-20T14:15:25;25.23;;;15.95;;
42096;SDS011;27754;45.414;11.084;2022-11-20T14:18:14;27.10;;;17.05;;
42096;SDS011;27754;45.414;11.084;2022-11-20T14:20:48;25.33;;;17.17;;
42096;SDS011;27754;45.414;11.084;2022-11-20T14:23:23;27.48;;;17.25;;
42096;SDS011;27754;45.414;11.084;2022-11-20T14:25:55;28.02;;;17.20;;
42096;SDS011;27754;45.414;11.084;2022-11-20T14:28:26;25.52;;;15.57;;
42096;SDS011;27754;45.414;11.084;2022-11-20T14:30:55;25.05;;;16.08;;
42096;SDS011;27754;45.414;11.084;2022-11-20T14:33:23;23.65;;;15.40;;
42096;SDS011;27754;45.414;11.084;2022-11-20T14:35:53;23.80;;;16.05;;
42096;SDS011;27754;45.414;11.084;2022-11-20T14:38:22;28.88;;;17.55;;
42096;SDS011;27754;45.414;11.084;2022-11-20T14:40:52;27.20;;;16.10;;
42096;SDS011;27754;45.414;11.084;2022-11-20T14:43:23;23.77;;;15.32;;
42096;SDS011;27754;45.414;11.084;2022-11-20T14:45:58;26.45;;;16.23;;
42096;SDS011;27754;45.414;11.084;2022-11-20T14:48:29;25.13;;;15.15;;
42096;SDS011;27754;45.414;11.084;2022-11-20T14:51:10;24.25;;;15.82;;
42096;SDS011;27754;45.414;11.084;2022-11-20T14:53:38;31.13;;;20.70;;
42096;SDS011;27754;45.414;11.084;2022-11-20T14:56:05;35.05;;;20.88;;
42096;SDS011;27754;45.414;11.084;2022-11-20T14:58:33;32.35;;;20.73;;
42096;SDS011;27754;45.414;11.084;2022-11-20T15:01:03;34.53;;;21.10;;
42096;SDS011;27754;45.414;11.084;2022-11-20T15:03:32;33.70;;;20.17;;
42096;SDS011;27754;45.414;11.084;2022-11-20T15:06:01;26.70;;;17.92;;
42096;SDS011;27754;45.414;11.084;2022-11-20T15:08:29;25.73;;;16.85;;
42096;SDS011;27754;45.414;11.084;2022-11-20T15:10:56;23.33;;;15.63;;
42096;SDS011;27754;45.414;11.084;2022-11-20T15:13:30;23.17;;;15.60;;
42096;SDS011;27754;45.414;11.084;2022-11-20T15:16:00;22.65;;;15.68;;
42096;SDS011;27754;45.414;11.084;2022-11-20T15:18:32;21.35;;;15.02;;
42096;SDS011;27754;45.414;11.084;2022-11-20T15:23:36;23.75;;;16.13;;
42096;SDS011;27754;45.414;11.084;2022-11-20T15:26:06;24.63;;;15.60;;
42096;SDS011;27754;45.414;11.084;2022-11-20T15:31:03;24.42;;;15.98;;
42096;SDS011;27754;45.414;11.084;2022-11-20T15:33:31;24.35;;;15.63;;
42096;SDS011;27754;45.414;11.084;2022-11-20T15:35:59;24.85;;;16.48;;
42096;SDS011;27754;45.414;11.084;2022-11-20T15:38:26;25.05;;;15.60;;
42096;SDS011;27754;45.414;11.084;2022-11-20T15:40:53;27.65;;;17.52;;
42096;SDS011;27754;45.414;11.084;2022-11-20T15:43:20;23.45;;;15.32;;
42096;SDS011;27754;45.414;11.084;2022-11-20T15:45:48;26.33;;;17.00;;
42096;SDS011;27754;45.414;11.084;2022-11-20T15:48:27;25.25;;;16.80;;
42096;SDS011;27754;45.414;11.084;2022-11-20T15:50:59;27.10;;;18.25;;
42096;SDS011;27754;45.414;11.084;2022-11-20T15:53:30;25.15;;;16.55;;
42096;SDS011;27754;45.414;11.084;2022-11-20T15:55:57;30.38;;;18.92;;
42096;SDS011;27754;45.414;11.084;2022-11-20T15:58:24;27.90;;;17.20;;
42096;SDS011;27754;45.414;11.084;2022-11-20T16:00:51;29.02;;;19.00;;
42096;SDS011;27754;45.414;11.084;2022-11-20T16:03:19;32.08;;;21.65;;
42096;SDS011;27754;45.414;11.084;2022-11-20T16:05:46;31.25;;;21.50;;
42096;SDS011;27754;45.414;11.084;2022-11-20T16:08:13;33.83;;;22.08;;
42096;SDS011;27754;45.414;11.084;2022-11-20T16:10:41;38.05;;;23.92;;
42096;SDS011;27754;45.414;11.084;2022-11-20T16:13:12;34.20;;;22.25;;
42096;SDS011;27754;45.414;11.084;2022-11-20T16:16:00;38.97;;;23.95;;
42096;SDS011;27754;45.414;11.084;2022-11-20T16:18:33;32.13;;;21.80;;
42096;SDS011;27754;45.414;11.084;2022-11-20T16:21:00;33.97;;;22.73;;
42096;SDS011;27754;45.414;11.084;2022-11-20T16:23:27;41.63;;;24.65;;
42096;SDS011;27754;45.414;11.084;2022-11-20T16:25:54;34.72;;;22.10;;
42096;SDS011;27754;45.414;11.084;2022-11-20T16:28:21;29.40;;;19.65;;
42096;SDS011;27754;45.414;11.084;2022-11-20T16:30:48;29.55;;;20.23;;
42096;SDS011;27754;45.414;11.084;2022-11-20T16:33:16;35.83;;;21.52;;
42096;SDS011;27754;45.414;11.084;2022-11-20T16:35:43;30.48;;;19.60;;
42096;SDS011;27754;45.414;11.084;2022-11-20T16:38:10;36.30;;;21.17;;